createdAt,value
2018-08-19T00:01:32.401Z,48.73
2018-08-19T00:03:58.362Z,48.70
2018-08-19T00:06:24.320Z,48.40
2018-08-19T00:08:50.263Z,48.85
2018-08-19T00:11:16.195Z,48.91
2018-08-19T00:13:45.465Z,49.75
2018-08-19T00:16:11.421Z,49.23
2018-08-19T00:18:37.421Z,49.18
2018-08-19T00:21:03.362Z,49.06
2018-08-19T00:23:29.310Z,49.60
2018-08-19T00:25:55.272Z,49.14
2018-08-19T00:28:21.210Z,49.48
2018-08-19T00:30:47.194Z,50.31
2018-08-19T00:33:13.136Z,49.48
2018-08-19T00:35:39.060Z,48.58
2018-08-19T00:38:05.018Z,49.67
2018-08-19T00:40:30.968Z,49.19
2018-08-19T00:42:56.911Z,48.53
2018-08-19T00:45:22.875Z,50.16
2018-08-19T00:47:48.811Z,50.76
2018-08-19T00:50:14.734Z,50.52
2018-08-19T00:52:40.662Z,50.26
2018-08-19T00:55:06.677Z,49.19
2018-08-19T00:57:32.626Z,49.53
2018-08-19T00:59:58.592Z,49.12
2018-08-19T01:02:24.549Z,49.46
2018-08-19T01:04:50.721Z,49.48
2018-08-19T01:07:16.675Z,48.76
2018-08-19T01:09:42.645Z,48.80
2018-08-19T01:12:08.604Z,49.56
2018-08-19T01:14:34.570Z,49.36
2018-08-19T01:17:00.509Z,49.63
2018-08-19T01:19:26.471Z,49.80
2018-08-19T01:21:52.443Z,49.67
2018-08-19T01:24:18.409Z,49.23
2018-08-19T01:26:44.348Z,50.40
2018-08-19T01:29:10.299Z,49.34
2018-08-19T01:31:36.255Z,49.49
2018-08-19T01:34:02.203Z,50.29
2018-08-19T01:36:28.172Z,49.99
2018-08-19T01:38:54.108Z,49.79
2018-08-19T01:41:20.066Z,49.58
2018-08-19T01:43:45.992Z,50.32
2018-08-19T01:46:11.934Z,50.19
2018-08-19T01:48:37.883Z,49.95
2018-08-19T01:51:03.870Z,49.88
2018-08-19T01:53:29.837Z,49.13
2018-08-19T01:55:55.787Z,49.29
2018-08-19T01:58:21.728Z,49.56
2018-08-19T02:00:47.679Z,49.65
2018-08-19T02:03:13.631Z,49.11
2018-08-19T02:05:39.572Z,50.16
2018-08-19T02:08:05.593Z,49.52
2018-08-19T02:10:31.547Z,48.88
2018-08-19T02:12:57.472Z,48.79
2018-08-19T02:15:23.411Z,50.05
2018-08-19T02:17:49.360Z,49.38
2018-08-19T02:20:15.297Z,49.38
2018-08-19T02:22:41.237Z,50.50
2018-08-19T02:25:07.191Z,49.94
2018-08-19T02:27:33.120Z,49.14
2018-08-19T02:29:59.048Z,49.19
2018-08-19T02:32:24.985Z,50.16
2018-08-19T02:34:50.915Z,49.25
2018-08-19T02:37:16.840Z,49.91
2018-08-19T02:39:42.832Z,49.22
2018-08-19T02:42:08.787Z,50.26
2018-08-19T02:44:34.756Z,49.51
2018-08-19T02:47:00.711Z,49.49
2018-08-19T02:49:26.639Z,50.06
2018-08-19T02:51:52.579Z,49.79
2018-08-19T02:54:18.522Z,49.27
2018-08-19T02:56:44.476Z,50.23
2018-08-19T02:59:10.447Z,49.21
2018-08-19T03:01:36.403Z,49.45
2018-08-19T03:04:02.332Z,49.29
2018-08-19T03:06:28.298Z,49.78
2018-08-19T03:08:54.226Z,50.28
2018-08-19T03:11:20.187Z,49.58
2018-08-19T03:13:46.128Z,49.25
2018-08-19T03:16:12.058Z,49.88
2018-08-19T03:18:38.015Z,49.72
2018-08-19T03:21:03.959Z,50.75
2018-08-19T03:23:29.912Z,49.59
2018-08-19T03:25:55.839Z,51.13
2018-08-19T03:28:21.799Z,49.91
2018-08-19T03:30:47.731Z,50.38
2018-08-19T03:33:13.709Z,50.15
2018-08-19T03:35:39.636Z,49.68
2018-08-19T03:38:05.595Z,50.13
2018-08-19T03:40:31.544Z,50.44
2018-08-19T03:42:57.488Z,50.41
2018-08-19T03:45:23.415Z,50.27
2018-08-19T03:47:49.377Z,50.53
2018-08-19T03:50:15.312Z,50.57
2018-08-19T03:52:41.265Z,50.22
2018-08-19T03:55:07.208Z,51.21
2018-08-19T03:57:33.521Z,50.74
2018-08-19T03:59:59.512Z,50.17
2018-08-19T04:02:25.479Z,51.28
2018-08-19T04:04:51.426Z,50.67
2018-08-19T04:07:17.432Z,50.79
2018-08-19T04:09:43.372Z,50.48
2018-08-19T04:12:09.319Z,50.35
2018-08-19T04:14:35.267Z,49.88
2018-08-19T04:17:01.250Z,50.88
2018-08-19T04:19:27.194Z,50.67
2018-08-19T04:21:53.127Z,50.59
2018-08-19T04:24:19.064Z,50.88
2018-08-19T04:26:45.008Z,50.78
2018-08-19T04:29:10.978Z,50.61
2018-08-19T04:31:36.951Z,50.23
2018-08-19T04:34:02.889Z,50.61
2018-08-19T04:36:28.809Z,50.21
2018-08-19T04:38:54.762Z,50.85
2018-08-19T04:41:20.713Z,50.97
2018-08-19T04:43:46.657Z,50.53
2018-08-19T04:46:12.638Z,50.24
2018-08-19T04:48:38.578Z,51.25
2018-08-19T04:51:04.514Z,50.93
2018-08-19T04:53:30.453Z,51.00
2018-08-19T04:55:56.376Z,50.67
2018-08-19T04:58:22.357Z,50.30
2018-08-19T05:00:48.313Z,50.45
2018-08-19T05:03:14.289Z,50.80
2018-08-19T05:05:40.234Z,50.44
2018-08-19T05:08:06.306Z,49.08
2018-08-19T05:10:32.213Z,49.81
2018-08-19T05:12:58.155Z,50.99
2018-08-19T05:15:24.133Z,48.89
2018-08-19T05:17:50.073Z,48.87
2018-08-19T05:20:16.035Z,49.64
2018-08-19T05:22:42.118Z,48.81
2018-08-19T05:25:08.027Z,49.42
2018-08-19T05:27:33.992Z,49.03
2018-08-19T05:29:59.947Z,49.21
2018-08-19T05:32:25.886Z,49.22
2018-08-19T05:34:51.852Z,49.18
2018-08-19T05:37:17.777Z,48.51
2018-08-19T05:39:43.776Z,48.78
2018-08-19T05:42:09.719Z,48.61
2018-08-19T05:44:35.716Z,49.20
2018-08-19T05:47:01.815Z,49.88
2018-08-19T05:49:27.729Z,47.79
2018-08-19T05:51:53.677Z,49.06
2018-08-19T05:54:19.645Z,48.26
2018-08-19T05:56:45.578Z,47.47
2018-08-19T05:59:11.544Z,47.79
2018-08-19T06:01:37.508Z,46.79
2018-08-19T06:04:03.468Z,46.58
2018-08-19T06:06:29.419Z,45.22
2018-08-19T06:08:55.388Z,45.90
2018-08-19T06:11:21.340Z,45.12
2018-08-19T06:13:47.288Z,45.86
2018-08-19T06:16:13.221Z,44.54
2018-08-19T06:18:39.161Z,44.14
2018-08-19T06:21:05.112Z,43.76
2018-08-19T06:23:31.050Z,42.87
2018-08-19T06:25:56.988Z,42.92
2018-08-19T06:28:22.972Z,42.21
2018-08-19T06:30:48.942Z,42.84
2018-08-19T06:33:14.897Z,43.84
2018-08-19T06:35:40.851Z,44.84
2018-08-19T06:38:06.815Z,45.07
2018-08-19T06:40:32.800Z,44.36
2018-08-19T06:42:58.750Z,42.75
2018-08-19T06:45:24.712Z,42.18
2018-08-19T06:47:50.656Z,41.84
2018-08-19T06:50:16.613Z,43.36
2018-08-19T06:52:42.540Z,41.85
2018-08-19T06:55:08.472Z,41.47
2018-08-19T06:57:34.401Z,43.63
2018-08-19T07:00:00.344Z,41.74
2018-08-19T07:02:26.289Z,41.33
2018-08-19T07:04:52.245Z,40.10
2018-08-19T07:07:18.188Z,40.89
2018-08-19T07:09:44.144Z,39.82
2018-08-19T07:12:10.088Z,39.65
2018-08-19T07:14:36.039Z,41.50
2018-08-19T07:17:02.011Z,41.19
2018-08-19T07:19:27.971Z,41.61
2018-08-19T07:21:53.925Z,41.51
2018-08-19T07:24:19.869Z,40.97
2018-08-19T07:26:45.796Z,41.46
2018-08-19T07:29:11.764Z,41.30
2018-08-19T07:31:38.059Z,40.66
2018-08-19T07:34:04.301Z,39.90
2018-08-19T07:36:30.255Z,39.55
2018-08-19T07:38:56.217Z,40.07
2018-08-19T07:41:22.182Z,39.52
2018-08-19T07:43:48.182Z,39.83
2018-08-19T07:46:14.164Z,40.04
2018-08-19T07:48:40.119Z,39.04
2018-08-19T07:51:07.084Z,39.32
2018-08-19T07:53:33.057Z,38.80
2018-08-19T07:55:59.060Z,38.96
2018-08-19T07:58:24.993Z,38.82
2018-08-19T08:00:50.962Z,39.41
2018-08-19T08:03:16.900Z,39.15
2018-08-19T08:05:42.888Z,39.81
2018-08-19T08:08:08.858Z,39.04
2018-08-19T08:10:34.819Z,39.10
2018-08-19T08:13:00.826Z,38.83
2018-08-19T08:15:26.786Z,38.85
2018-08-19T08:17:52.778Z,38.84
2018-08-19T08:20:18.749Z,39.05
2018-08-19T08:22:44.707Z,38.50
2018-08-19T08:25:10.659Z,38.93
2018-08-19T08:27:36.619Z,38.94
2018-08-19T08:30:02.613Z,38.78
2018-08-19T08:32:28.557Z,38.34
2018-08-19T08:34:54.520Z,38.32
2018-08-19T08:37:20.477Z,38.07
2018-08-19T08:39:46.428Z,38.18
2018-08-19T08:42:12.380Z,37.86
2018-08-19T08:44:38.335Z,38.96
2018-08-19T08:47:04.282Z,38.77
2018-08-19T08:49:30.357Z,39.36
2018-08-19T08:51:56.323Z,39.49
2018-08-19T08:54:22.346Z,39.52
2018-08-19T08:56:48.294Z,39.91
2018-08-19T08:59:14.248Z,39.93
2018-08-19T09:01:40.192Z,39.92
2018-08-19T09:04:06.150Z,40.22
2018-08-19T09:06:32.115Z,39.27
2018-08-19T09:08:58.083Z,39.37
2018-08-19T09:11:24.032Z,39.42
2018-08-19T09:13:49.982Z,39.66
2018-08-19T09:16:15.946Z,39.69
2018-08-19T09:18:41.924Z,39.21
2018-08-19T09:21:07.883Z,39.05
2018-08-19T09:23:33.859Z,39.11
2018-08-19T09:25:59.817Z,40.04
2018-08-19T09:28:25.825Z,39.04
2018-08-19T09:30:51.780Z,39.52
2018-08-19T09:33:17.743Z,39.25
2018-08-19T09:35:43.702Z,38.95
2018-08-19T09:38:09.665Z,38.84
2018-08-19T09:40:35.634Z,39.18
2018-08-19T09:43:01.619Z,38.90
2018-08-19T09:45:27.588Z,38.08
2018-08-19T09:47:53.700Z,38.49
2018-08-19T09:50:19.528Z,37.28
2018-08-19T09:52:45.515Z,36.24
2018-08-19T09:55:11.453Z,37.15
2018-08-19T09:57:37.448Z,37.93
2018-08-19T10:00:03.354Z,36.35
2018-08-19T10:02:29.330Z,37.42
2018-08-19T10:04:55.677Z,36.94
2018-08-19T10:07:21.664Z,37.33
2018-08-19T10:09:47.740Z,36.42
2018-08-19T10:12:13.685Z,37.18
2018-08-19T10:14:39.911Z,37.05
2018-08-19T10:17:05.897Z,36.96
2018-08-19T10:19:31.851Z,37.22
2018-08-19T10:21:57.795Z,36.65
2018-08-19T10:24:23.760Z,36.12
2018-08-19T10:26:49.718Z,35.60
2018-08-19T10:29:15.685Z,36.53
2018-08-19T10:31:41.624Z,36.22
2018-08-19T10:34:07.591Z,35.29
2018-08-19T10:36:33.545Z,36.09
2018-08-19T10:38:59.477Z,36.64
2018-08-19T10:41:25.400Z,36.77
2018-08-19T10:43:51.366Z,36.08
2018-08-19T10:46:17.493Z,35.83
2018-08-19T10:48:43.353Z,36.45
2018-08-19T10:51:09.289Z,36.23
2018-08-19T10:53:35.215Z,36.42
2018-08-19T10:56:01.188Z,35.92
2018-08-19T10:58:27.163Z,36.33
2018-08-19T11:00:53.129Z,36.66
2018-08-19T11:03:19.088Z,36.82
2018-08-19T11:05:45.056Z,36.34
2018-08-19T11:08:11.009Z,36.04
2018-08-19T11:10:36.945Z,36.45
2018-08-19T11:13:02.935Z,36.23
2018-08-19T11:15:28.920Z,36.62
2018-08-19T11:17:54.910Z,36.38
2018-08-19T11:20:20.848Z,35.85
2018-08-19T11:22:46.812Z,36.78
2018-08-19T11:25:12.795Z,36.36
2018-08-19T11:27:38.879Z,36.78
2018-08-19T11:30:04.773Z,35.95
2018-08-19T11:32:30.733Z,37.80
2018-08-19T11:34:56.669Z,37.77
2018-08-19T11:37:22.618Z,37.04
2018-08-19T11:39:48.581Z,37.83
2018-08-19T11:42:14.512Z,37.01
2018-08-19T11:44:40.474Z,37.51
2018-08-19T11:47:06.417Z,37.89
2018-08-19T11:49:32.382Z,36.84
2018-08-19T11:51:58.344Z,37.19
2018-08-19T11:54:24.289Z,36.52
2018-08-19T11:56:50.270Z,38.19
2018-08-19T11:59:16.285Z,37.49
2018-08-19T12:01:42.241Z,37.46
2018-08-19T12:04:08.300Z,37.38
2018-08-19T12:06:34.276Z,36.79
2018-08-19T12:09:00.231Z,37.00
2018-08-19T12:11:26.182Z,37.08
2018-08-19T12:13:52.142Z,36.80
2018-08-19T12:16:18.153Z,37.12
2018-08-19T12:18:44.133Z,37.27
2018-08-19T12:21:10.104Z,37.30
2018-08-19T12:23:36.039Z,37.21
2018-08-19T12:26:02.011Z,36.96
2018-08-19T12:28:28.051Z,37.39
2018-08-19T12:30:53.999Z,37.24
2018-08-19T12:33:19.931Z,36.94
2018-08-19T12:35:45.906Z,36.70
2018-08-19T12:38:11.841Z,37.42
2018-08-19T12:40:37.804Z,37.10
2018-08-19T12:43:03.747Z,37.29
2018-08-19T12:45:29.729Z,36.97
2018-08-19T12:47:55.673Z,37.50
2018-08-19T12:50:21.708Z,36.93
2018-08-19T12:52:47.569Z,37.07
2018-08-19T12:55:13.517Z,37.05
2018-08-19T12:57:39.461Z,37.25
2018-08-19T13:00:05.460Z,37.25
2018-08-19T13:02:31.893Z,37.53
2018-08-19T13:04:57.892Z,37.28
2018-08-19T13:07:23.838Z,36.70
2018-08-19T13:09:49.822Z,36.02
2018-08-19T13:12:15.814Z,37.84
2018-08-19T13:14:42.153Z,37.34
2018-08-19T13:17:08.089Z,36.98
2018-08-19T13:19:34.061Z,36.98
2018-08-19T13:22:00.044Z,36.52
2018-08-19T13:24:25.986Z,35.80
2018-08-19T13:26:51.968Z,36.21
2018-08-19T13:29:17.929Z,35.77
2018-08-19T13:31:43.904Z,35.64
2018-08-19T13:36:42.328Z,36.66
2018-08-19T13:39:08.281Z,36.21
2018-08-19T13:41:34.254Z,36.63
2018-08-19T13:44:00.212Z,36.84
2018-08-19T13:46:26.188Z,35.96
2018-08-19T13:48:52.135Z,36.44
2018-08-19T13:51:18.113Z,36.51
2018-08-19T13:53:44.109Z,36.57
2018-08-19T13:56:10.101Z,36.60
2018-08-19T13:58:36.086Z,36.75
2018-08-19T14:01:02.052Z,35.89
2018-08-19T14:03:28.023Z,36.12
2018-08-19T14:05:54.013Z,35.80
2018-08-19T14:08:19.989Z,36.42
2018-08-19T14:10:45.973Z,35.82
2018-08-19T14:13:11.969Z,36.15
2018-08-19T14:15:37.937Z,35.87
2018-08-19T14:18:03.905Z,36.47
2018-08-19T14:20:29.869Z,36.23
2018-08-19T14:22:55.815Z,36.05
2018-08-19T14:25:21.779Z,35.62
2018-08-19T14:27:47.754Z,36.00
2018-08-19T14:30:13.827Z,35.88
2018-08-19T14:32:39.686Z,35.20
2018-08-19T14:35:05.644Z,35.98
2018-08-19T14:37:31.606Z,35.76
2018-08-19T14:39:57.714Z,35.50
2018-08-19T14:42:23.696Z,35.36
2018-08-19T14:44:49.634Z,35.23
2018-08-19T14:47:15.609Z,35.67
2018-08-19T14:49:41.533Z,35.68
2018-08-19T14:52:07.511Z,35.10
2018-08-19T14:54:33.442Z,35.71
2018-08-19T14:56:59.508Z,35.33
2018-08-19T14:59:25.528Z,35.11
2018-08-19T15:01:51.661Z,35.50
2018-08-19T15:04:17.616Z,35.39
2018-08-19T15:06:43.557Z,35.26
2018-08-19T15:09:09.537Z,35.73
2018-08-19T15:11:35.494Z,35.68
2018-08-19T15:14:01.426Z,35.74
2018-08-19T15:16:27.445Z,35.02
2018-08-19T15:18:53.426Z,34.98
2018-08-19T15:21:19.395Z,35.45
2018-08-19T15:23:45.381Z,35.19
2018-08-19T15:26:11.321Z,35.86
2018-08-19T15:28:37.261Z,35.61
2018-08-19T15:31:03.224Z,35.51
2018-08-19T15:33:29.180Z,36.25
2018-08-19T15:35:55.114Z,35.44
2018-08-19T15:38:21.047Z,35.90
2018-08-19T15:40:47.049Z,35.74
2018-08-19T15:43:13.008Z,35.16
2018-08-19T15:45:38.996Z,35.23
2018-08-19T15:48:04.965Z,36.09
2018-08-19T15:50:31.010Z,36.27
2018-08-19T15:52:57.047Z,35.98
2018-08-19T15:55:23.042Z,36.42
2018-08-19T15:57:48.983Z,37.07
2018-08-19T16:00:14.944Z,37.48
2018-08-19T16:02:40.898Z,37.67
2018-08-19T16:05:06.857Z,36.98
2018-08-19T16:07:32.873Z,37.02
2018-08-19T16:09:58.814Z,36.72
2018-08-19T16:12:24.837Z,36.71
2018-08-19T16:14:50.790Z,36.54
2018-08-19T16:17:16.735Z,36.69
2018-08-19T16:19:42.685Z,36.63
2018-08-19T16:22:08.712Z,36.52
2018-08-19T16:24:34.749Z,36.41
2018-08-19T16:27:00.723Z,36.21
2018-08-19T16:29:26.760Z,36.15
2018-08-19T16:31:52.907Z,35.25
2018-08-19T16:34:18.832Z,35.96
2018-08-19T16:36:44.781Z,35.39
2018-08-19T16:39:10.761Z,35.27
2018-08-19T16:41:36.741Z,35.05
2018-08-19T16:44:02.710Z,34.88
2018-08-19T16:46:28.748Z,34.43
2018-08-19T16:48:54.764Z,35.03
2018-08-19T16:51:20.732Z,34.82
2018-08-19T16:53:46.691Z,34.90
2018-08-19T16:56:12.627Z,34.23
2018-08-19T16:58:38.588Z,34.77
2018-08-19T17:01:04.558Z,34.36
2018-08-19T17:03:30.510Z,34.68
2018-08-19T17:05:56.467Z,34.66
2018-08-19T17:08:22.395Z,34.56
2018-08-19T17:10:48.373Z,34.02
2018-08-19T17:13:14.336Z,35.31
2018-08-19T17:15:40.268Z,34.72
2018-08-19T17:18:06.196Z,35.00
2018-08-19T17:20:32.156Z,35.13
2018-08-19T17:22:58.087Z,35.17
2018-08-19T17:25:24.151Z,35.17
2018-08-19T17:27:50.088Z,34.53
2018-08-19T17:30:16.093Z,34.82
2018-08-19T17:32:42.093Z,35.21
2018-08-19T17:35:08.109Z,35.12
2018-08-19T17:37:34.067Z,34.52
2018-08-19T17:40:00.049Z,34.89
2018-08-19T17:42:26.042Z,35.14
2018-08-19T17:44:52.019Z,35.12
2018-08-19T17:47:17.960Z,34.59
2018-08-19T17:49:44.016Z,34.93
2018-08-19T17:52:10.023Z,35.19
2018-08-19T17:54:35.905Z,34.47
2018-08-19T17:57:01.909Z,34.99
2018-08-19T17:59:28.115Z,34.37
2018-08-19T18:01:53.986Z,34.61
2018-08-19T18:04:20.034Z,34.91
2018-08-19T18:06:45.983Z,34.85
2018-08-19T18:11:38.243Z,34.89
2018-08-19T18:14:04.221Z,34.94
2018-08-19T18:16:30.192Z,34.96
2018-08-19T18:18:56.163Z,35.29
2018-08-19T18:21:22.170Z,35.11
2018-08-19T18:23:48.125Z,35.55
2018-08-19T18:26:14.081Z,35.69
2018-08-19T18:28:40.099Z,35.79
2018-08-19T18:31:06.049Z,36.56
2018-08-19T18:33:32.044Z,36.16
2018-08-19T18:35:58.044Z,37.19
2018-08-19T18:38:24.157Z,36.74
2018-08-19T18:40:50.006Z,37.64
2018-08-19T18:43:15.967Z,38.28
2018-08-19T18:45:41.968Z,37.84
2018-08-19T18:48:08.094Z,37.93
2018-08-19T18:50:34.182Z,37.88
2018-08-19T18:53:00.343Z,37.91
2018-08-19T18:55:26.373Z,38.26
2018-08-19T18:57:52.328Z,38.36
2018-08-19T19:00:18.297Z,38.88
2018-08-19T19:02:44.377Z,38.37
2018-08-19T19:05:10.508Z,38.50
2018-08-19T19:07:36.556Z,39.32
2018-08-19T19:10:02.529Z,38.72
2018-08-19T19:12:28.489Z,39.01
2018-08-19T19:14:54.429Z,38.36
2018-08-19T19:17:20.374Z,39.74
2018-08-19T19:19:46.339Z,39.29
2018-08-19T19:22:12.347Z,39.59
2018-08-19T19:24:38.307Z,38.42
2018-08-19T19:27:04.282Z,38.76
2018-08-19T19:29:30.256Z,39.65
2018-08-19T19:31:56.201Z,39.69
2018-08-19T19:34:22.315Z,38.92
2018-08-19T19:36:48.135Z,39.64
2018-08-19T19:39:14.109Z,39.41
2018-08-19T19:41:40.059Z,39.19
2018-08-19T19:44:06.018Z,38.17
2018-08-19T19:46:32.004Z,38.70
2018-08-19T19:48:57.986Z,38.97
2018-08-19T19:51:23.972Z,38.67
2018-08-19T19:53:49.933Z,39.30
2018-08-19T19:56:16.300Z,38.31
2018-08-19T19:58:42.289Z,38.98
2018-08-19T20:01:08.319Z,38.56
2018-08-19T20:03:34.270Z,38.40
2018-08-19T20:06:00.228Z,38.10
2018-08-19T20:08:26.254Z,37.89
2018-08-19T20:10:52.212Z,38.80
2018-08-19T20:13:18.213Z,37.82
2018-08-19T20:15:44.184Z,38.10
2018-08-19T20:18:10.255Z,38.48
2018-08-19T20:20:36.320Z,38.63
2018-08-19T20:23:02.429Z,38.62
2018-08-19T20:25:28.558Z,38.36
2018-08-19T20:27:54.543Z,38.96
2018-08-19T20:30:20.575Z,38.29
2018-08-19T20:32:46.621Z,39.78
2018-08-19T20:35:12.686Z,39.57
2018-08-19T20:40:10.130Z,40.36
2018-08-19T20:42:36.166Z,39.76
2018-08-19T20:45:02.170Z,40.21
2018-08-19T20:47:28.197Z,40.31
2018-08-19T20:49:54.214Z,41.62
2018-08-19T20:52:20.263Z,41.45
2018-08-19T20:54:48.035Z,40.58
2018-08-19T20:57:15.939Z,41.02
2018-08-19T20:59:42.013Z,42.12
2018-08-19T21:02:08.033Z,41.45
2018-08-19T21:04:37.760Z,42.17
2018-08-19T21:07:06.929Z,41.99
2018-08-19T21:09:32.953Z,41.42
2018-08-19T21:11:58.962Z,41.10
2018-08-19T21:14:24.930Z,41.26
2018-08-19T21:16:50.974Z,41.91
2018-08-19T21:19:16.930Z,41.43
2018-08-19T21:21:42.861Z,41.79
2018-08-19T21:24:08.804Z,41.54
2018-08-19T21:26:34.737Z,42.00
2018-08-19T21:29:00.688Z,42.22
2018-08-19T21:31:26.612Z,42.47
2018-08-19T21:33:52.565Z,42.09
2018-08-19T21:36:18.501Z,41.42
2018-08-19T21:38:44.438Z,42.18
2018-08-19T21:41:10.366Z,42.32
2018-08-19T21:43:36.302Z,41.63
2018-08-19T21:46:02.245Z,41.37
2018-08-19T21:48:28.178Z,42.03
2018-08-19T21:50:54.097Z,41.97
2018-08-19T21:53:20.082Z,42.45
2018-08-19T21:55:46.020Z,42.28
2018-08-19T21:58:11.963Z,42.13
2018-08-19T22:00:37.905Z,42.32
2018-08-19T22:03:03.833Z,42.20
2018-08-19T22:05:29.792Z,42.67
2018-08-19T22:07:55.735Z,42.74
2018-08-19T22:10:21.684Z,43.11
2018-08-19T22:12:47.637Z,42.22
2018-08-19T22:15:13.585Z,41.93
2018-08-19T22:17:39.509Z,42.09
2018-08-19T22:20:05.475Z,43.45
2018-08-19T22:22:31.425Z,43.06
2018-08-19T22:24:57.400Z,42.49
2018-08-19T22:27:23.403Z,42.98
2018-08-19T22:29:49.339Z,42.92
2018-08-19T22:32:15.268Z,41.80
2018-08-19T22:34:41.240Z,42.43
2018-08-19T22:37:07.188Z,43.14
2018-08-19T22:39:33.143Z,42.40
2018-08-19T22:41:59.092Z,41.97
2018-08-19T22:44:25.067Z,41.72
2018-08-19T22:46:51.005Z,42.64
2018-08-19T22:49:16.966Z,42.46
2018-08-19T22:51:42.904Z,42.04
2018-08-19T22:54:08.856Z,42.18
2018-08-19T22:56:34.801Z,42.05
2018-08-19T22:59:00.752Z,41.63
2018-08-19T23:01:26.696Z,41.15
2018-08-19T23:03:52.620Z,42.26
2018-08-19T23:06:18.544Z,43.50
2018-08-19T23:08:44.490Z,43.42
2018-08-19T23:11:10.475Z,42.65
2018-08-19T23:13:36.435Z,43.11
2018-08-19T23:16:02.391Z,42.72
2018-08-19T23:18:28.342Z,42.47
2018-08-19T23:20:54.314Z,42.99
2018-08-19T23:23:20.264Z,43.07
2018-08-19T23:25:46.204Z,44.04
2018-08-19T23:28:12.153Z,44.94
2018-08-19T23:30:38.096Z,44.66
2018-08-19T23:33:04.021Z,45.51
2018-08-19T23:35:29.984Z,45.78
2018-08-19T23:37:55.926Z,45.12
2018-08-19T23:40:21.888Z,45.10
2018-08-19T23:42:47.832Z,44.86
2018-08-19T23:45:13.771Z,44.30
2018-08-19T23:47:39.701Z,44.10
2018-08-19T23:50:05.638Z,44.13
2018-08-19T23:52:31.580Z,45.17
2018-08-19T23:54:57.528Z,44.80
2018-08-19T23:57:23.455Z,44.68
2018-08-19T23:59:49.383Z,45.73
